Прогноз погоды TAF Абакан

СКИДКИ НА СМАРТФОНЫ!

Прогноз погоды TAF: 
TAF UNAA 061959Z 0621/0721 35002MPS 1400 BR FU BKN004 TEMPO 0621/0703 0250 FZFG FU BECMG 0703/0705 FEW004 TEMPO 0705/0711 2500 BR FU TEMPO 0718/0721 0250 FZFG FU VV002
Аэропорт подробнее: 
Регион: 

Скидки на навигаторы!